Portada
METAR-TAF:

METAR-TAF

Aeropuertos :

Aeropuerto de Oujda Angads

Oujda, Marruecos

latitud: 34-47N, longitud: 001-56W, altitud: 468 m

Observación

El informe se hizo hace 28 minutos, a las 19:30 UTC
Viento 3 kt del este, variando entre este-noreste y este-sureste
Temperatura 12°C
Humedad 76%
Presión 1016 hPa
Visibilidad 10 km o más
sin nubes por debajo de 1500 m y sin presencia de cumulonimbus.

METAR: GMFO 291930Z 09003KT 060V120 CAVOK 12/08 Q1016 NOSIG

Hora: 20:58 (19:58 UTC)

Pronóstico

El informe se hizo hace 2 horas y 58 minutos, a las 17:00 UTC
Pronóstico válido del 29 a las 18 UTC al 30 a las 24 UTC
Viento 5 kt del este-noreste
Visibilidad 10 km o más
sin nubes por debajo de 1500 m y sin presencia de cumulonimbus.
Evolucionando progresivamente
del 30 a las 03 UTC al 30 a las 07 UTC
Viento 12 kt del sur

TAF: GMFO 291700Z 2918/3024 07005KT CAVOK BECMG 3003/3007 18012KT

Observaciones y pronósticos meteorológicos de más de 4000 aeropuertos (mensajes METAR y TAF).

Los puntos amarillos y rojos representan las estaciones disponibles.

Ponga el ratón en el punto deseado para ver el nombre de la estación.

Haga clic para ver las observaciones y los pronósticos meteorológicos.

Para cambiar el mapa : haga clic en los botones verdes con una cruz de color negro para hacer un zoom, en el botón verde con un guión para alejar o en las flechas verdes para mapas adyacentes.


METAR-TAF: